createdAt,value
2018-06-11T04:55:33.207Z,10.17
2018-06-11T04:58:01.296Z,9.67
2018-06-11T05:00:29.660Z,11.93
2018-06-11T05:02:58.453Z,11.50
2018-06-11T05:05:26.547Z,11.00
2018-06-11T05:07:54.972Z,11.17
2018-06-11T05:10:23.455Z,11.90
2018-06-11T05:12:51.580Z,12.23
2018-06-11T05:15:19.732Z,13.20
2018-06-11T05:17:47.799Z,14.10
2018-06-11T05:20:15.922Z,11.50
2018-06-11T05:29:16.361Z,12.37
2018-06-11T05:31:44.500Z,11.63
2018-06-11T05:34:13.213Z,13.18
2018-06-11T05:36:41.417Z,12.47
2018-06-11T05:39:09.693Z,11.50
2018-06-11T05:41:37.916Z,14.63
2018-06-11T05:44:06.887Z,13.80
2018-06-11T05:46:35.125Z,13.23
2018-06-11T05:49:03.277Z,12.85
2018-06-11T05:51:31.429Z,12.05
2018-06-11T05:53:59.825Z,12.90
2018-06-11T05:56:28.384Z,14.63
2018-06-11T05:58:56.522Z,13.87
2018-06-11T06:01:25.105Z,13.20
2018-06-11T06:03:53.200Z,14.77
2018-06-11T06:06:21.565Z,13.87
2018-06-11T06:08:49.819Z,16.20
2018-06-11T06:11:17.877Z,18.50
2018-06-11T06:13:45.964Z,19.30
2018-06-11T06:16:14.308Z,20.30
2018-06-11T06:18:42.715Z,16.97
2018-06-11T06:21:11.312Z,16.30
2018-06-11T06:23:40.368Z,16.30
2018-06-11T06:26:08.849Z,15.30
2018-06-11T06:28:37.141Z,13.03
2018-06-11T06:31:05.345Z,14.73
2018-06-11T06:33:33.403Z,15.53
2018-06-11T06:36:01.905Z,15.50
2018-06-11T06:38:30.009Z,14.73
2018-06-11T06:40:58.098Z,16.10
2018-06-11T06:43:27.174Z,15.05
2018-06-11T06:45:55.289Z,17.40
2018-06-11T06:48:23.539Z,17.73
2018-06-11T06:50:51.634Z,18.17
2018-06-11T06:53:20.117Z,17.00
2018-06-11T06:55:48.284Z,16.47
2018-06-11T06:58:16.407Z,18.55
2018-06-11T07:00:44.472Z,17.23
2018-06-11T07:03:12.560Z,18.23
2018-06-11T07:05:40.632Z,20.57
2018-06-11T07:08:08.850Z,18.40
2018-06-11T07:10:36.959Z,20.03
2018-06-11T07:13:05.039Z,18.07
2018-06-11T07:15:33.250Z,19.27
2018-06-11T07:18:01.487Z,19.77
2018-06-11T07:20:29.623Z,19.03
2018-06-11T07:22:58.537Z,16.62
2018-06-11T07:25:26.594Z,16.83
2018-06-11T07:27:54.780Z,18.40
2018-06-11T07:30:22.871Z,11.80
2018-06-11T07:32:50.980Z,12.70
2018-06-11T07:35:19.076Z,14.63
2018-06-11T07:37:47.312Z,14.20
2018-06-11T07:40:15.447Z,12.27
2018-06-11T07:42:43.680Z,13.03
2018-06-11T07:45:11.751Z,13.83
2018-06-11T07:47:39.841Z,14.10
2018-06-11T07:50:07.900Z,15.18
2018-06-11T07:52:36.135Z,12.82
2018-06-11T07:55:04.517Z,15.08
2018-06-11T07:57:32.621Z,17.60
2018-06-11T08:00:00.733Z,17.87
2018-06-11T08:02:29.508Z,20.30
2018-06-11T08:04:57.673Z,18.63
2018-06-11T08:07:25.792Z,19.07
2018-06-11T08:09:54.080Z,19.40
2018-06-11T08:12:22.420Z,18.10
2018-06-11T08:14:50.517Z,19.87
2018-06-11T08:17:18.669Z,21.73
2018-06-11T08:19:46.753Z,19.50
2018-06-11T08:22:14.827Z,18.92
2018-06-11T08:24:43.141Z,17.57
2018-06-11T08:27:11.237Z,19.20
2018-06-11T08:29:39.357Z,19.33
2018-06-11T08:32:07.706Z,19.30
2018-06-11T08:34:35.860Z,16.90
2018-06-11T08:37:04.211Z,19.20
2018-06-11T08:39:32.296Z,18.60
2018-06-11T08:42:00.637Z,18.63
2018-06-11T08:44:28.859Z,17.70
2018-06-11T08:46:56.953Z,17.90
2018-06-11T08:49:25.242Z,17.47
2018-06-11T08:51:53.508Z,17.93
2018-06-11T08:54:21.801Z,15.97
2018-06-11T08:56:49.980Z,15.10
2018-06-11T08:59:18.373Z,16.77
2018-06-11T09:01:46.791Z,15.87
2018-06-11T09:04:14.892Z,17.43
2018-06-11T09:06:43.124Z,15.93
2018-06-11T09:09:11.336Z,14.07
2018-06-11T09:11:39.724Z,14.73
2018-06-11T09:14:07.903Z,14.57
2018-06-11T09:16:36.029Z,12.63
2018-06-11T09:19:04.118Z,15.50
2018-06-11T09:21:32.223Z,14.10
2018-06-11T09:24:00.452Z,14.57
2018-06-11T09:26:28.764Z,14.13
2018-06-11T09:28:57.091Z,14.53
2018-06-11T09:31:25.931Z,14.20
2018-06-11T09:33:54.037Z,14.30
2018-06-11T09:36:22.314Z,15.50
2018-06-11T09:38:50.556Z,14.07
2018-06-11T09:41:18.935Z,15.20
2018-06-11T09:43:47.696Z,12.57
2018-06-11T09:46:15.767Z,13.00
2018-06-11T09:48:44.267Z,12.50
2018-06-11T09:51:13.372Z,10.85
2018-06-11T09:53:41.468Z,11.10
2018-06-11T09:56:09.574Z,9.53
2018-06-11T09:58:37.802Z,10.20
2018-06-11T10:01:05.918Z,8.93
2018-06-11T10:03:34.019Z,10.97
2018-06-11T10:06:02.873Z,8.83
2018-06-11T10:08:31.003Z,9.67
2018-06-11T10:10:59.356Z,10.53
2018-06-11T10:13:27.493Z,11.47
2018-06-11T10:15:55.577Z,11.33
2018-06-11T10:18:23.729Z,11.00
2018-06-11T10:20:51.852Z,11.07
2018-06-11T10:23:20.008Z,11.60
2018-06-11T10:25:48.132Z,10.80
2018-06-11T10:28:16.219Z,9.40
2018-06-11T10:30:45.444Z,10.10
2018-06-11T10:33:13.649Z,10.83
2018-06-11T10:35:42.041Z,10.72
2018-06-11T10:38:10.369Z,9.23
2018-06-11T10:40:38.565Z,8.55
2018-06-11T10:43:06.735Z,9.57
2018-06-11T10:45:34.905Z,9.87
2018-06-11T10:48:03.191Z,8.90
2018-06-11T10:50:31.535Z,9.57
2018-06-11T10:52:59.857Z,9.20
2018-06-11T10:55:28.155Z,9.70
2018-06-11T10:57:56.481Z,10.40
2018-06-11T11:00:24.542Z,10.33
2018-06-11T11:02:52.624Z,9.80
2018-06-11T11:05:20.777Z,9.45
2018-06-11T11:07:48.861Z,9.80
2018-06-11T11:10:16.943Z,11.40
2018-06-11T11:12:45.060Z,10.50
2018-06-11T11:15:13.144Z,11.77
2018-06-11T11:17:41.256Z,10.43
2018-06-11T11:20:09.425Z,11.28
2018-06-11T11:22:37.504Z,11.83
2018-06-11T11:25:05.624Z,10.78
2018-06-11T11:27:33.760Z,11.73
2018-06-11T11:30:01.851Z,10.43
2018-06-11T11:32:30.236Z,11.77
2018-06-11T11:34:58.396Z,11.03
2018-06-11T11:37:26.732Z,11.17
2018-06-11T11:39:55.106Z,10.80
2018-06-11T11:42:23.268Z,9.47
2018-06-11T11:44:51.352Z,8.90
2018-06-11T11:47:19.452Z,9.13
2018-06-11T11:49:47.576Z,9.80
2018-06-11T11:52:16.439Z,9.87
2018-06-11T11:54:44.512Z,9.57
2018-06-11T11:57:12.764Z,10.30
2018-06-11T11:59:41.128Z,11.18
2018-06-11T12:02:09.283Z,9.20
2018-06-11T12:04:37.605Z,9.17
2018-06-11T12:07:06.220Z,11.40
2018-06-11T12:09:34.287Z,10.40
2018-06-11T12:12:02.651Z,9.43
2018-06-11T12:14:30.763Z,11.30
2018-06-11T12:16:58.846Z,10.50
2018-06-11T12:19:27.247Z,9.10
2018-06-11T12:21:55.516Z,9.57
2018-06-11T12:24:23.809Z,10.53
2018-06-11T12:26:51.987Z,11.30
2018-06-11T12:29:20.627Z,10.77
2018-06-11T12:31:48.908Z,9.20
2018-06-11T12:34:17.000Z,8.40
2018-06-11T12:36:45.092Z,8.70
2018-06-11T12:39:13.392Z,6.73
2018-06-11T12:41:41.480Z,7.50
2018-06-11T12:44:09.553Z,6.67
2018-06-11T12:46:38.200Z,7.53
2018-06-11T12:49:06.389Z,8.57
2018-06-11T12:51:34.679Z,7.63
2018-06-11T12:54:02.870Z,7.03
2018-06-11T12:56:31.237Z,8.57
2018-06-11T12:58:59.508Z,5.97
2018-06-11T13:01:27.593Z,7.37
2018-06-11T13:03:55.647Z,6.70
2018-06-11T13:06:23.743Z,6.30
2018-06-11T13:08:51.831Z,5.85
2018-06-11T13:11:19.956Z,5.22
2018-06-11T13:13:48.071Z,6.55
2018-06-11T13:16:16.382Z,6.20
2018-06-11T13:18:44.565Z,5.00
2018-06-11T13:21:12.892Z,5.47
2018-06-11T13:23:41.112Z,4.43
2018-06-11T13:26:09.596Z,6.08
2018-06-11T13:28:38.208Z,5.15
2018-06-11T13:31:06.273Z,4.40
2018-06-11T13:33:34.400Z,4.97
2018-06-11T13:36:02.449Z,5.20
2018-06-11T13:38:30.531Z,4.70
2018-06-11T13:40:58.590Z,4.63
2018-06-11T13:43:26.664Z,4.63
2018-06-11T13:45:55.044Z,3.67
2018-06-11T13:48:23.175Z,4.80
2018-06-11T13:50:51.250Z,4.47
2018-06-11T13:53:19.487Z,4.53
2018-06-11T13:55:47.670Z,5.30
2018-06-11T13:58:15.786Z,7.13
2018-06-11T14:00:43.845Z,6.10
2018-06-11T14:03:12.069Z,6.10
2018-06-11T14:05:41.165Z,7.15
2018-06-11T14:08:09.273Z,6.93
2018-06-11T14:10:37.327Z,7.40
2018-06-11T14:13:05.707Z,8.83
2018-06-11T14:15:33.793Z,6.93
2018-06-11T14:18:01.902Z,6.80
2018-06-11T14:20:30.039Z,8.40
2018-06-11T14:22:58.136Z,7.50
2018-06-11T14:25:26.235Z,7.00
2018-06-11T14:27:54.823Z,7.37
2018-06-11T14:30:23.118Z,7.25
2018-06-11T14:32:51.456Z,6.83
2018-06-11T14:35:19.667Z,8.63
2018-06-11T14:37:47.740Z,8.83
2018-06-11T14:40:15.839Z,6.37
2018-06-11T14:42:44.136Z,5.90
2018-06-11T14:45:12.540Z,4.15
2018-06-11T14:47:40.615Z,3.97
2018-06-11T14:50:08.685Z,5.50
2018-06-11T14:52:36.796Z,5.17
2018-06-11T14:55:04.880Z,4.50
2018-06-11T14:57:32.956Z,4.90
2018-06-11T15:00:01.120Z,4.87
2018-06-11T15:02:29.136Z,4.45
2018-06-11T15:04:57.300Z,3.30
2018-06-11T15:08:15.076Z,3.40
2018-06-11T15:10:43.571Z,3.67
2018-06-11T15:13:11.644Z,3.37
2018-06-11T15:15:39.767Z,2.47
2018-06-11T15:18:07.863Z,2.83
2018-06-11T15:29:45.136Z,3.63
2018-06-11T15:32:13.336Z,5.07
2018-06-11T15:34:41.618Z,4.30
2018-06-11T15:37:09.963Z,4.72
2018-06-11T19:25:11.291Z,2.80
2018-06-11T20:32:00.836Z,9.43
2018-06-11T20:34:29.067Z,8.60
2018-06-11T20:36:57.402Z,7.90
2018-06-11T21:22:42.556Z,7.55
2018-06-11T21:25:11.173Z,6.17
2018-06-11T21:27:39.917Z,7.30
2018-06-11T21:36:13.507Z,7.97
2018-06-11T21:38:43.431Z,8.27
2018-06-11T21:47:16.780Z,8.40
2018-06-11T21:49:45.688Z,9.00
